Time;durP1;ratioP1;P1;durP2;ratioP2;P2;SDS_P1;SDS_P2;PMS_P1;PMS_P2;Temp;Humidity;BMP_temperature;BMP_pressure;BME280_temperature;BME280_humidity;BME280_pressure;Samples;Min_cycle;Max_cycle;Signal;HPM_P1;HPM_P2
2022/12/07 00:01:43;;;;;;;51.33;31.70;;;5.00;99.90;;;-144.05;81.36;125687.94;4995028;28;20034;-81
2022/12/07 00:04:15;;;;;;;49.80;30.55;;;5.00;99.90;;;-144.05;81.47;125687.94;4995486;28;20500;-84
2022/12/07 00:06:52;;;;;;;53.83;31.88;;;5.00;99.90;;;-144.05;81.61;125687.94;4994531;28;20026;-83
2022/12/07 00:09:18;;;;;;;58.67;32.80;;;5.00;99.90;;;-144.05;81.12;125687.94;4994492;28;20473;-85
2022/12/07 00:11:50;;;;;;;50.22;31.48;;;5.10;99.90;;;-144.05;81.00;125687.94;4994096;28;20034;-84
2022/12/07 00:14:19;;;;;;;52.47;31.85;;;5.10;99.90;;;-144.05;80.74;125687.94;4993301;28;20054;-84
2022/12/07 00:16:49;;;;;;;50.38;31.83;;;5.10;99.90;;;-144.05;80.87;125687.94;4993402;28;20105;-85
2022/12/07 00:19:15;;;;;;;56.17;31.63;;;5.10;99.90;;;-144.05;80.68;125687.94;4994646;28;20026;-84
2022/12/07 00:21:43;;;;;;;47.10;29.60;;;5.20;99.90;;;-144.05;80.32;125687.94;4993232;28;20030;-84
2022/12/07 00:24:11;;;;;;;55.10;32.67;;;5.10;99.90;;;-144.05;80.86;125687.94;4993222;28;20031;-85
2022/12/07 00:26:41;;;;;;;53.58;31.13;;;5.10;99.90;;;-144.05;80.75;125687.94;4992658;28;20030;-83
2022/12/07 00:29:18;;;;;;;47.75;29.02;;;5.10;99.90;;;-144.05;80.26;125687.94;4992854;28;20395;-84
2022/12/07 00:31:44;;;;;;;49.72;29.60;;;5.10;99.90;;;-144.05;80.32;125687.94;4993103;28;20038;-82
2022/12/07 00:34:21;;;;;;;51.22;29.77;;;5.10;99.90;;;-144.05;80.35;125687.94;4994145;28;20037;-85
2022/12/07 00:36:48;;;;;;;48.20;30.30;;;5.10;99.90;;;-144.05;80.18;125687.94;4991843;28;20030;-84
2022/12/07 00:39:15;;;;;;;47.35;29.17;;;5.10;99.90;;;-144.05;80.61;125687.94;4993915;28;20447;-84
2022/12/07 00:41:41;;;;;;;49.42;30.80;;;5.10;99.90;;;-144.05;80.64;125687.94;4994282;28;20030;-84
2022/12/07 00:44:06;;;;;;;52.42;30.33;;;5.10;99.90;;;-144.05;80.94;125687.94;4993738;28;20489;-85
2022/12/07 00:46:33;;;;;;;47.45;29.70;;;5.10;99.90;;;-144.05;80.57;125687.94;4994583;28;20136;-85
2022/12/07 00:48:58;;;;;;;51.10;31.88;;;5.10;99.90;;;-144.05;80.42;125687.94;4994039;28;20032;-83
2022/12/07 00:51:26;;;;;;;49.28;29.00;;;5.10;99.90;;;-144.05;80.74;125687.94;4992424;28;20347;-84
2022/12/07 00:53:52;;;;;;;46.63;28.85;;;5.00;99.90;;;-144.05;80.58;125687.94;4994092;28;20041;-84
2022/12/07 00:56:27;;;;;;;52.10;30.77;;;5.10;99.90;;;-144.05;80.91;125687.94;4993167;28;20386;-85
2022/12/07 00:59:03;;;;;;;44.13;27.85;;;5.10;99.90;;;-144.05;80.64;125687.94;4993010;28;20033;-84
2022/12/07 01:01:36;;;;;;;44.70;29.27;;;5.10;99.90;;;-144.05;80.82;125687.94;4992904;28;20117;-84
2022/12/07 01:04:03;;;;;;;46.20;29.55;;;5.10;99.90;;;-144.05;80.88;125687.94;4994097;28;20114;-84
2022/12/07 01:06:30;;;;;;;44.00;27.98;;;5.10;99.90;;;-144.05;80.70;125687.94;4994328;28;20040;-85
2022/12/07 01:08:56;;;;;;;46.70;28.45;;;5.10;99.90;;;-144.05;80.64;125687.94;4992790;28;20627;-82
2022/12/07 01:11:28;;;;;;;42.97;26.95;;;5.10;99.90;;;-144.05;80.72;125687.94;4994562;28;20100;-85
2022/12/07 01:13:58;;;;;;;40.33;25.35;;;5.10;99.90;;;-144.05;80.60;125687.94;4993428;28;20117;-84
2022/12/07 01:16:28;;;;;;;46.85;26.80;;;5.20;99.90;;;-144.05;80.63;125687.94;4994769;28;20501;-86
2022/12/07 01:18:56;;;;;;;45.00;27.42;;;5.10;99.90;;;-144.05;80.05;125687.94;4993104;28;20427;-86
2022/12/07 01:21:30;;;;;;;37.63;25.10;;;5.10;99.90;;;-144.05;80.15;125687.94;4995277;28;20022;-85
2022/12/07 01:23:58;;;;;;;45.13;27.70;;;5.10;99.90;;;-144.05;80.36;125687.94;4994226;28;20509;-83
2022/12/07 01:26:25;;;;;;;46.45;26.67;;;5.10;99.90;;;-144.05;80.40;125687.94;4995353;28;20035;-85
2022/12/07 01:28:54;;;;;;;42.13;27.35;;;5.10;99.90;;;-144.05;80.62;125687.94;4993798;28;20037;-85
2022/12/07 01:31:25;;;;;;;48.95;29.20;;;5.10;99.90;;;-144.05;80.77;125687.94;4994318;28;20549;-84
2022/12/07 01:33:58;;;;;;;45.35;28.90;;;5.10;99.90;;;-144.05;80.43;125687.94;4994658;28;20066;-85
2022/12/07 01:36:30;;;;;;;44.25;26.95;;;5.20;99.90;;;-144.05;80.26;125687.94;4996176;28;20030;-86
2022/12/07 01:39:02;;;;;;;43.83;28.45;;;5.20;99.90;;;-144.05;80.34;125687.94;5023035;28;20080;-84
2022/12/07 01:41:34;;;;;;;45.83;29.17;;;5.20;99.90;;;-144.05;80.70;125687.94;4996447;28;20038;-83
2022/12/07 01:44:32;;;;;;;45.17;28.20;;;5.00;99.90;;;-144.05;80.77;125687.94;4993305;28;20034;-85
2022/12/07 01:47:04;;;;;;;47.58;29.98;;;5.00;99.90;;;-144.05;81.06;125687.94;4993207;28;20085;-84
2022/12/07 01:49:48;;;;;;;46.10;29.70;;;5.10;99.90;;;-144.05;81.27;125687.94;4997083;28;20092;-83
2022/12/07 01:52:34;;;;;;;48.10;27.95;;;5.00;99.90;;;-144.05;81.04;125687.94;4998308;28;20224;-83
2022/12/07 01:55:13;;;;;;;50.10;30.00;;;5.10;99.90;;;-144.05;80.87;125687.94;4998288;28;20048;-86
2022/12/07 01:57:51;;;;;;;49.90;29.58;;;5.10;99.90;;;-144.05;81.28;125687.94;4996885;28;20026;-84
2022/12/07 02:00:18;;;;;;;52.05;30.95;;;5.10;99.90;;;-144.05;80.99;125687.94;4996805;28;20035;-84
2022/12/07 02:03:04;;;;;;;51.80;30.33;;;5.00;99.90;;;-144.05;81.07;125687.94;4998468;28;20117;-83
2022/12/07 02:05:33;;;;;;;51.83;30.43;;;5.00;99.90;;;-144.05;80.90;125687.94;4998812;28;20031;-84
2022/12/07 02:08:00;;;;;;;47.08;29.42;;;5.00;99.90;;;-144.05;80.85;125687.94;4998484;28;20030;-85
2022/12/07 02:10:31;;;;;;;45.17;28.88;;;5.00;99.90;;;-144.05;80.62;125687.94;4997388;28;20113;-85
2022/12/07 02:13:21;;;;;;;49.15;29.05;;;5.00;99.90;;;-144.05;80.75;125687.94;4997922;28;20056;-85
2022/12/07 02:16:11;;;;;;;48.80;28.85;;;5.10;99.90;;;-144.05;80.75;125687.94;4999477;28;20031;-85
2022/12/07 02:18:59;;;;;;;51.15;30.85;;;5.10;99.90;;;-144.05;80.45;125687.94;4997462;28;20108;-84
2022/12/07 02:21:59;;;;;;;46.13;27.77;;;5.10;99.90;;;-144.05;80.47;125687.94;4999749;28;20498;-83
2022/12/07 02:25:04;;;;;;;46.83;27.60;;;5.10;99.90;;;-144.05;80.57;125687.94;4999170;28;20114;-83
2022/12/07 02:27:51;;;;;;;48.72;27.95;;;5.00;99.90;;;-144.05;80.52;125687.94;4996087;28;20545;-84
2022/12/07 02:30:26;;;;;;;46.80;26.92;;;5.00;99.90;;;-144.05;80.81;125687.94;4996357;28;20053;-83
2022/12/07 02:33:19;;;;;;;46.75;27.00;;;5.00;99.90;;;-144.05;81.12;125687.94;5012786;28;20030;-82
2022/12/07 02:36:02;;;;;;;47.40;28.42;;;5.00;99.90;;;-144.05;80.63;125687.94;4997106;28;20459;-84
2022/12/07 02:39:00;;;;;;;47.90;27.58;;;5.00;99.90;;;-144.05;80.34;125687.94;4995532;28;20037;-83
2022/12/07 02:41:46;;;;;;;47.15;27.95;;;5.00;99.90;;;-144.05;80.52;125687.94;4997300;28;20164;-83
2022/12/07 02:44:23;;;;;;;47.35;27.15;;;5.00;99.90;;;-144.05;80.26;125687.94;4995870;28;20034;-84
2022/12/07 02:47:07;;;;;;;43.88;27.90;;;5.00;99.90;;;-144.05;80.52;125687.94;4997491;28;20434;-84
2022/12/07 02:49:33;;;;;;;41.60;26.20;;;5.00;99.90;;;-144.05;80.41;125687.94;4997138;28;20483;-85
2022/12/07 02:52:00;;;;;;;43.83;27.80;;;4.90;99.90;;;-144.05;80.19;125687.94;4997393;28;20034;-83
2022/12/07 02:54:26;;;;;;;42.58;24.92;;;5.00;99.90;;;-144.05;79.98;125687.94;4995851;28;20459;-84
2022/12/07 02:57:16;;;;;;;45.15;26.35;;;5.00;99.90;;;-144.05;79.96;125687.94;4995920;28;20026;-85
2022/12/07 03:00:10;;;;;;;42.03;25.73;;;5.00;99.90;;;-144.05;79.52;125687.94;4994516;28;20030;-84
2022/12/07 03:03:05;;;;;;;45.42;26.13;;;5.00;99.90;;;-144.05;80.25;125687.94;5012468;28;20538;-85
2022/12/07 03:06:10;;;;;;;41.70;25.63;;;4.90;99.90;;;-144.05;79.87;125687.94;4999793;28;20110;-84
2022/12/07 03:08:56;;;;;;;47.35;27.23;;;4.80;99.90;;;-144.05;80.12;125687.94;5003509;28;20054;-83
2022/12/07 03:11:52;;;;;;;43.50;26.83;;;4.80;99.90;;;-144.05;80.07;125687.94;5002032;28;20042;-83
2022/12/07 03:14:41;;;;;;;38.88;24.67;;;4.80;99.90;;;-144.05;80.10;125687.94;4997239;28;20034;-83
2022/12/07 03:17:28;;;;;;;39.72;23.58;;;4.70;99.90;;;-144.05;79.95;125687.94;4997488;28;20088;-83
2022/12/07 03:20:03;;;;;;;43.97;25.15;;;4.60;99.90;;;-144.05;80.10;125687.94;4997568;28;20034;-83
2022/12/07 03:22:35;;;;;;;35.80;22.98;;;4.50;99.90;;;-144.05;80.00;125687.94;4997885;28;20031;-85
2022/12/07 03:25:10;;;;;;;38.28;23.13;;;4.50;99.90;;;-144.05;80.05;125687.94;4994000;28;20042;-84
2022/12/07 03:28:04;;;;;;;40.40;24.23;;;4.40;99.90;;;-144.05;80.46;125687.94;4995834;28;20050;-84
2022/12/07 03:30:37;;;;;;;36.70;22.60;;;4.30;99.90;;;-144.05;80.55;125687.94;5012738;28;20069;-84
2022/12/07 03:33:34;;;;;;;36.63;23.73;;;4.30;99.90;;;-144.05;80.45;125687.94;4997682;28;20372;-85
2022/12/07 03:36:17;;;;;;;36.42;22.85;;;4.30;99.90;;;-144.05;80.68;125687.94;4996483;28;20446;-86
2022/12/07 03:39:17;;;;;;;39.17;21.98;;;4.30;99.90;;;-144.05;80.24;125687.94;4998857;28;20026;-84
2022/12/07 03:41:43;;;;;;;41.88;24.58;;;4.20;99.90;;;-144.05;81.05;125687.94;5010197;28;20030;-84
2022/12/07 03:44:09;;;;;;;40.00;24.05;;;4.10;99.90;;;-144.05;80.43;125687.94;5012654;28;20491;-84
2022/12/07 03:47:10;;;;;;;40.22;24.75;;;4.10;99.90;;;-144.05;80.59;125687.94;5010424;28;20031;-84
2022/12/07 03:49:58;;;;;;;41.53;24.23;;;4.00;99.90;;;-144.05;80.84;125687.94;4994308;28;20106;-83
2022/12/07 03:52:38;;;;;;;45.00;25.05;;;3.90;99.90;;;-144.05;80.74;125687.94;4993937;28;20033;-83
2022/12/07 03:55:17;;;;;;;47.45;28.30;;;3.80;99.90;;;-144.05;81.61;125687.94;4993966;28;20035;-83
2022/12/07 03:57:49;;;;;;;51.03;27.50;;;3.80;99.90;;;-144.05;81.33;125687.94;4994827;28;20113;-83
2022/12/07 04:00:18;;;;;;;45.22;26.58;;;3.80;99.90;;;-144.05;81.75;125687.94;4993264;28;20027;-84
2022/12/07 04:02:44;;;;;;;45.83;27.33;;;3.80;99.90;;;-144.05;81.54;125687.94;5010044;28;20022;-83
2022/12/07 04:05:11;;;;;;;43.50;26.00;;;3.70;99.90;;;-144.05;81.37;125687.94;4994544;28;20052;-83
2022/12/07 04:07:37;;;;;;;50.95;28.02;;;3.60;99.90;;;-144.05;81.94;125687.94;5009841;28;20034;-83
2022/12/07 04:10:05;;;;;;;51.20;27.73;;;3.50;99.90;;;-144.05;82.02;125687.94;4994718;28;20030;-82
2022/12/07 04:12:31;;;;;;;53.03;29.73;;;3.50;99.90;;;-144.05;81.90;125687.94;4994644;28;20487;-83
2022/12/07 04:14:57;;;;;;;42.85;25.45;;;3.60;99.90;;;-144.05;81.62;125687.94;4995861;28;20034;-83
2022/12/07 04:17:23;;;;;;;44.75;26.00;;;3.50;99.90;;;-144.05;81.70;125687.94;4994739;28;20030;-83
2022/12/07 04:19:50;;;;;;;47.05;26.85;;;3.50;99.90;;;-144.05;82.11;125687.94;4999514;28;20050;-81
2022/12/07 04:22:16;;;;;;;48.42;27.35;;;3.50;99.90;;;-144.05;82.31;125687.94;5001558;28;20031;-82
2022/12/07 04:24:42;;;;;;;50.72;27.25;;;3.50;99.90;;;-144.05;82.63;125687.94;5001606;28;20037;-82
2022/12/07 04:27:07;;;;;;;46.40;25.65;;;3.60;99.90;;;-144.05;81.94;125687.94;5001728;28;20451;-83
2022/12/07 04:29:33;;;;;;;42.13;25.83;;;3.60;99.90;;;-144.05;82.14;125687.94;5001202;28;20085;-83
2022/12/07 04:31:59;;;;;;;47.88;25.88;;;3.70;99.90;;;-144.05;81.97;125687.94;5001656;28;20390;-83
2022/12/07 04:34:25;;;;;;;46.08;26.02;;;3.60;99.90;;;-144.05;82.71;125687.94;5003106;28;20085;-84
2022/12/07 04:36:51;;;;;;;47.95;26.52;;;3.60;99.90;;;-144.05;82.35;125687.94;5004780;28;20054;-83
2022/12/07 04:39:32;;;;;;;47.58;27.05;;;3.60;99.90;;;-144.05;82.54;125687.94;5001766;28;20022;-83
2022/12/07 04:42:01;;;;;;;52.28;27.17;;;3.60;99.90;;;-144.05;82.23;125687.94;5001197;28;20030;-83
2022/12/07 04:44:29;;;;;;;44.95;27.30;;;3.60;99.90;;;-144.05;82.77;125687.94;5002759;28;20089;-82
2022/12/07 04:46:56;;;;;;;46.50;27.67;;;3.60;99.90;;;-144.05;82.44;125687.94;5004010;28;20041;-81
2022/12/07 04:49:25;;;;;;;46.80;25.65;;;3.70;99.90;;;-144.05;82.55;125687.94;5003947;28;20102;-83
2022/12/07 04:51:51;;;;;;;45.67;26.00;;;3.70;99.90;;;-144.05;82.54;125687.94;5006505;28;20038;-83
2022/12/07 04:54:17;;;;;;;44.85;26.52;;;3.70;99.90;;;-144.05;82.49;125687.94;5006787;28;20030;-84
2022/12/07 04:56:44;;;;;;;47.30;26.38;;;3.70;99.90;;;-144.05;82.31;125687.94;5005092;28;20046;-83
2022/12/07 04:59:12;;;;;;;36.00;22.85;;;3.70;99.90;;;-144.05;82.40;125687.94;5006904;28;20030;-84
2022/12/07 05:01:38;;;;;;;49.63;24.27;;;3.70;99.90;;;-144.05;82.49;125687.94;5008382;28;20053;-85
2022/12/07 05:04:04;;;;;;;40.03;23.08;;;3.70;99.90;;;-144.05;82.29;125687.94;5008049;28;20034;-85
2022/12/07 05:06:30;;;;;;;41.60;24.30;;;3.70;99.90;;;-144.05;82.39;125687.94;5005407;28;20034;-86
2022/12/07 05:08:56;;;;;;;41.85;24.13;;;3.70;99.90;;;-144.05;82.51;125687.94;5004428;28;20022;-85
2022/12/07 05:11:40;;;;;;;43.63;25.17;;;3.70;99.90;;;-144.05;82.53;125687.94;5004249;28;20069;-84
2022/12/07 05:14:15;;;;;;;44.92;24.65;;;3.70;99.90;;;-144.05;82.81;125687.94;5007874;28;20026;-84
2022/12/07 05:16:44;;;;;;;41.33;24.02;;;3.80;99.90;;;-144.05;82.53;125687.94;5004460;28;20080;-83
2022/12/07 05:19:11;;;;;;;43.33;23.90;;;3.70;99.90;;;-144.05;82.47;125687.94;5003681;28;20050;-86
2022/12/07 05:21:38;;;;;;;42.22;24.13;;;3.80;99.90;;;-144.05;82.51;125687.94;5004210;28;20031;-85
2022/12/07 05:24:06;;;;;;;44.42;23.00;;;3.80;99.90;;;-144.05;82.41;125687.94;5003701;28;20074;-85
2022/12/07 05:26:34;;;;;;;40.88;23.95;;;3.80;99.90;;;-144.05;82.32;125687.94;5010064;28;20031;-82
2022/12/07 05:29:00;;;;;;;40.72;22.75;;;3.80;99.90;;;-144.05;82.22;125687.94;5004813;28;20026;-84
2022/12/07 05:31:27;;;;;;;39.08;23.17;;;3.70;99.90;;;-144.05;82.42;125687.94;5001198;28;20034;-82
2022/12/07 05:33:54;;;;;;;39.80;23.70;;;3.70;99.90;;;-144.05;82.59;125687.94;5002654;28;20050;-84
2022/12/07 05:36:21;;;;;;;45.50;23.77;;;3.60;99.90;;;-144.05;82.70;125687.94;5002280;28;20045;-85
2022/12/07 05:38:47;;;;;;;44.65;24.38;;;3.60;99.90;;;-144.05;82.46;125687.94;5003374;28;20034;-83
2022/12/07 05:44:22;;;;;;;50.83;26.08;;;3.60;99.90;;;-144.05;82.30;125687.94;5015284;28;20028;-81
2022/12/07 05:46:48;;;;;;;40.47;23.83;;;3.60;99.90;;;-144.05;82.64;125687.94;5002247;28;20084;-85
2022/12/07 05:49:14;;;;;;;58.88;29.67;;;3.70;99.90;;;-144.05;82.42;125687.94;4999155;28;20038;-86
2022/12/07 05:51:40;;;;;;;50.33;27.05;;;3.70;99.90;;;-144.05;81.97;125687.94;4997707;28;20041;-83
2022/12/07 05:54:06;;;;;;;49.35;28.15;;;3.70;99.90;;;-144.05;82.02;125687.94;4998376;28;20041;-86
2022/12/07 05:56:32;;;;;;;47.35;27.13;;;3.70;99.90;;;-144.05;81.87;125687.94;4998693;28;20024;-85
2022/12/07 06:01:43;;;;;;;43.13;24.13;;;3.70;99.90;;;-144.05;81.92;125687.94;4999977;28;20045;-83
2022/12/07 06:04:09;;;;;;;64.97;32.53;;;3.60;99.90;;;-144.05;82.26;125687.94;4999519;28;20113;-84
2022/12/07 06:06:35;;;;;;;70.13;32.08;;;3.70;99.90;;;-144.05;82.12;125687.94;4999322;28;20045;-84
2022/12/07 06:09:02;;;;;;;54.55;26.77;;;3.70;99.90;;;-144.05;82.16;125687.94;4999067;28;20034;-82
2022/12/07 06:14:13;;;;;;;44.33;25.02;;;3.80;99.90;;;-144.05;81.96;125687.94;4998976;28;20548;-83
2022/12/07 06:16:39;;;;;;;41.67;22.48;;;3.80;99.90;;;-144.05;81.99;125687.94;4997827;28;20395;-82
2022/12/07 06:19:05;;;;;;;46.45;23.42;;;3.80;99.90;;;-144.05;82.12;125687.94;4998982;28;20049;-82
2022/12/07 06:21:31;;;;;;;40.08;22.73;;;3.80;99.90;;;-144.05;82.08;125687.94;4999574;28;20566;-83
2022/12/07 06:23:56;;;;;;;40.88;22.15;;;3.80;99.90;;;-144.05;81.97;125687.94;4999247;28;20053;-83
2022/12/07 06:26:23;;;;;;;39.30;22.15;;;3.70;99.90;;;-144.05;82.32;125687.94;4999258;28;20037;-83
2022/12/07 06:28:48;;;;;;;42.38;22.48;;;3.80;99.90;;;-144.05;81.90;125687.94;4996952;28;20042;-83
2022/12/07 06:31:15;;;;;;;36.33;21.02;;;3.80;99.90;;;-144.05;81.92;125687.94;5000000;28;20030;-86
2022/12/07 06:33:42;;;;;;;37.75;21.65;;;3.70;99.90;;;-144.05;81.82;125687.94;5002996;28;20037;-85
2022/12/07 06:36:09;;;;;;;38.78;23.83;;;3.70;99.90;;;-144.05;82.44;125687.94;5005422;28;20038;-84
2022/12/07 06:38:36;;;;;;;40.88;22.77;;;3.70;99.90;;;-144.05;82.39;125687.94;5005512;28;20041;-83
2022/12/07 06:41:02;;;;;;;38.72;21.17;;;3.80;99.90;;;-144.05;82.04;125687.94;5016826;28;20034;-85
2022/12/07 06:43:28;;;;;;;46.63;23.92;;;3.80;99.90;;;-144.05;81.70;125687.94;5001304;28;20084;-83
2022/12/07 06:45:54;;;;;;;42.50;23.30;;;3.80;99.90;;;-144.05;81.27;125687.94;5003925;28;20065;-82
2022/12/07 06:48:20;;;;;;;46.17;23.52;;;3.80;99.90;;;-144.05;80.57;125687.94;5004644;28;20034;-83
2022/12/07 06:50:48;;;;;;;38.65;21.20;;;3.90;99.90;;;-144.05;80.89;125687.94;5004034;28;20042;-84
2022/12/07 06:53:14;;;;;;;38.22;20.75;;;3.80;99.90;;;-144.05;80.57;125687.94;5000997;28;20030;-83
2022/12/07 06:55:40;;;;;;;40.00;21.60;;;3.80;99.90;;;-144.05;81.00;125687.94;5000689;28;20034;-84
2022/12/07 06:58:06;;;;;;;40.15;22.10;;;3.80;99.90;;;-144.05;80.84;125687.94;5015691;28;20031;-82
2022/12/07 07:00:31;;;;;;;43.60;23.17;;;3.70;99.90;;;-144.05;81.08;125687.94;5000762;28;20022;-83
2022/12/07 07:02:57;;;;;;;40.00;22.65;;;3.70;99.90;;;-144.05;80.91;125687.94;5004915;28;20031;-84
2022/12/07 07:05:23;;;;;;;46.42;21.52;;;3.60;99.90;;;-144.05;81.05;125687.94;5005314;28;20117;-83
2022/12/07 07:07:50;;;;;;;43.92;22.25;;;3.50;99.90;;;-144.05;81.20;125687.94;5003821;28;20482;-84
2022/12/07 07:10:16;;;;;;;41.97;21.10;;;3.50;99.90;;;-144.05;81.36;125687.94;5003738;28;20034;-84
2022/12/07 07:12:42;;;;;;;38.47;20.38;;;3.40;99.90;;;-144.05;81.78;125687.94;5002823;28;20030;-85
2022/12/07 07:15:09;;;;;;;34.20;19.23;;;3.40;99.90;;;-144.05;82.03;125687.94;5018544;28;20100;-85
2022/12/07 07:17:35;;;;;;;40.78;21.17;;;3.40;99.90;;;-144.05;81.73;125687.94;5002690;28;20054;-84
2022/12/07 07:20:01;;;;;;;39.67;19.85;;;3.40;99.90;;;-144.05;81.65;125687.94;5003795;28;20026;-84
2022/12/07 07:22:27;;;;;;;37.58;19.90;;;3.40;99.90;;;-144.05;81.64;125687.94;5004759;28;20494;-84
2022/12/07 07:24:53;;;;;;;38.40;19.33;;;3.40;99.90;;;-144.05;81.47;125687.94;5007239;28;20078;-83
2022/12/07 07:27:18;;;;;;;36.55;20.55;;;3.40;99.90;;;-144.05;81.54;125687.94;5004741;28;20057;-83
2022/12/07 07:29:44;;;;;;;33.22;17.15;;;3.40;99.90;;;-144.05;81.56;125687.94;5008019;28;20022;-83
2022/12/07 07:32:10;;;;;;;34.25;18.05;;;3.40;99.90;;;-144.05;81.46;125687.94;5008847;28;20027;-84
2022/12/07 07:34:36;;;;;;;32.10;16.45;;;3.30;99.90;;;-144.05;81.47;125687.94;5007710;28;20034;-84
2022/12/07 07:37:02;;;;;;;30.77;17.20;;;3.30;99.90;;;-144.05;81.35;125687.94;5009255;28;20037;-84
2022/12/07 07:39:28;;;;;;;30.35;15.73;;;3.20;99.90;;;-144.05;81.47;125687.94;5009660;28;20026;-85
2022/12/07 07:41:54;;;;;;;33.10;16.55;;;3.20;99.90;;;-144.05;81.24;125687.94;5012064;28;20031;-84
2022/12/07 07:44:20;;;;;;;31.10;16.92;;;3.10;99.90;;;-144.05;81.94;125687.94;5014375;28;20084;-82
2022/12/07 07:46:46;;;;;;;31.13;15.18;;;3.10;99.90;;;-144.05;81.63;125687.94;5016667;28;20050;-84
2022/12/07 07:49:12;;;;;;;31.25;16.80;;;3.00;99.90;;;-144.05;81.14;125687.94;5007963;28;20450;-83
2022/12/07 07:51:38;;;;;;;28.40;15.02;;;3.00;99.90;;;-144.05;81.40;125687.94;5006508;28;20195;-84
2022/12/07 07:54:05;;;;;;;27.15;15.75;;;2.90;99.90;;;-144.05;81.52;125687.94;5008265;28;20031;-84
2022/12/07 07:56:30;;;;;;;30.27;15.70;;;2.80;99.90;;;-144.05;81.71;125687.94;5011193;28;20086;-84
2022/12/07 07:58:59;;;;;;;24.35;14.90;;;2.80;99.90;;;-144.05;81.57;125687.94;5006870;28;20505;-84
2022/12/07 08:01:25;;;;;;;30.00;15.75;;;2.80;99.90;;;-144.05;81.55;125687.94;5009318;28;20026;-86
2022/12/07 08:03:51;;;;;;;30.83;15.98;;;2.80;99.90;;;-144.05;81.84;125687.94;5007835;28;20034;-84
2022/12/07 08:06:17;;;;;;;26.30;15.68;;;2.80;99.90;;;-144.05;81.74;125687.94;5008222;28;20026;-84
2022/12/07 08:08:43;;;;;;;27.13;14.20;;;2.80;99.90;;;-144.05;81.68;125687.94;5007135;28;20085;-85
2022/12/07 08:11:09;;;;;;;26.02;14.13;;;2.80;99.90;;;-144.05;81.68;125687.94;5004732;28;20057;-85
2022/12/07 08:13:36;;;;;;;26.75;14.48;;;2.80;99.90;;;-144.05;81.74;125687.94;5004914;28;20041;-85
2022/12/07 08:16:09;;;;;;;25.65;14.85;;;2.70;99.90;;;-144.05;81.76;125687.94;5004622;28;20030;-82
2022/12/07 08:18:40;;;;;;;32.10;14.43;;;2.70;99.90;;;-144.05;81.74;125687.94;5007923;28;20029;-83
2022/12/07 08:21:11;;;;;;;26.33;14.38;;;2.70;99.90;;;-144.05;81.97;125687.94;5007962;28;20022;-86
2022/12/07 08:23:37;;;;;;;31.73;14.50;;;2.80;99.90;;;-144.05;82.02;125687.94;5010570;28;20041;-82
2022/12/07 08:26:14;;;;;;;28.85;14.48;;;2.80;99.90;;;-144.05;82.19;125687.94;5012970;28;20053;-83
2022/12/07 08:28:41;;;;;;;28.90;15.20;;;2.90;99.90;;;-144.05;82.26;125687.94;5009295;28;20057;-83
2022/12/07 08:31:15;;;;;;;28.80;15.60;;;3.10;99.90;;;-144.05;82.02;125687.94;5001683;28;20030;-83
2022/12/07 08:33:44;;;;;;;24.08;13.77;;;3.20;99.90;;;-144.05;81.71;125687.94;5003712;28;20037;-82
2022/12/07 08:36:12;;;;;;;29.15;15.10;;;3.30;99.90;;;-144.05;81.93;125687.94;5003946;28;20140;-85
2022/12/07 08:38:41;;;;;;;31.30;15.07;;;3.40;99.90;;;-144.05;81.87;125687.94;5004770;28;20061;-84
2022/12/07 08:41:08;;;;;;;29.30;14.05;;;3.60;99.90;;;-144.05;81.55;125687.94;5006123;28;20173;-83
2022/12/07 08:43:35;;;;;;;33.60;14.48;;;3.80;99.90;;;-144.05;81.43;125687.94;5025862;28;20034;-84
2022/12/07 08:46:26;;;;;;;27.30;14.40;;;4.00;99.90;;;-144.05;80.74;125687.94;5009920;28;20041;-84
2022/12/07 08:49:36;;;;;;;28.17;13.13;;;4.30;99.90;;;-144.05;79.90;125687.94;5004729;28;20034;-84
2022/12/07 08:52:05;;;;;;;23.20;10.93;;;4.40;99.90;;;-144.05;79.25;125687.94;4998427;28;20045;-83
2022/12/07 08:54:37;;;;;;;21.92;11.52;;;4.40;99.90;;;-144.05;79.30;125687.94;5020239;28;20222;-84
2022/12/07 08:57:05;;;;;;;24.85;10.75;;;4.50;99.90;;;-144.05;78.88;125687.94;5001649;28;20391;-85
2022/12/07 08:59:36;;;;;;;19.70;10.15;;;4.50;99.90;;;-144.05;78.37;125687.94;5003045;28;20033;-83
2022/12/07 09:02:04;;;;;;;21.65;10.68;;;4.60;99.90;;;-144.05;78.05;125687.94;5017482;28;20498;-84
2022/12/07 09:04:31;;;;;;;23.58;9.88;;;4.60;99.90;;;-144.05;77.63;125687.94;5001838;28;20030;-83
2022/12/07 09:06:57;;;;;;;21.38;9.70;;;4.60;99.90;;;-144.05;77.72;125687.94;5002252;28;20041;-83
2022/12/07 09:09:23;;;;;;;20.15;10.02;;;4.60;99.90;;;-144.05;77.70;125687.94;5000060;28;20030;-84
2022/12/07 09:11:49;;;;;;;19.45;9.65;;;4.60;99.90;;;-144.05;77.71;125687.94;5002964;28;20034;-84
2022/12/07 09:14:15;;;;;;;15.95;9.52;;;4.60;99.90;;;-144.05;77.58;125687.94;5000817;28;20030;-85
2022/12/07 09:16:41;;;;;;;18.63;9.45;;;4.50;99.90;;;-144.05;77.46;125687.94;5002158;28;20053;-84
2022/12/07 09:19:08;;;;;;;17.70;9.70;;;4.50;99.90;;;-144.05;77.41;125687.94;5001695;28;20465;-83
2022/12/07 09:21:34;;;;;;;20.38;10.38;;;4.50;99.90;;;-144.05;77.44;125687.94;5016817;28;20121;-85
2022/12/07 09:23:59;;;;;;;22.73;10.05;;;4.50;99.90;;;-144.05;77.28;125687.94;5000059;28;20037;-85
2022/12/07 09:26:25;;;;;;;24.42;10.23;;;4.60;99.90;;;-144.05;77.16;125687.94;5002299;28;20026;-85
2022/12/07 09:28:51;;;;;;;21.27;9.60;;;4.60;99.90;;;-144.05;76.65;125687.94;4999588;28;20030;-85
2022/12/07 09:31:17;;;;;;;25.25;10.90;;;4.70;99.90;;;-144.05;76.51;125687.94;4999262;28;20038;-86
2022/12/07 09:33:44;;;;;;;18.83;10.85;;;4.70;99.90;;;-144.05;76.35;125687.94;5000056;28;20034;-83
2022/12/07 09:36:10;;;;;;;16.88;9.77;;;4.80;99.90;;;-144.05;76.41;125687.94;5002705;28;20023;-84
2022/12/07 09:38:36;;;;;;;21.45;10.38;;;4.90;99.90;;;-144.05;76.89;125687.94;5003142;28;20023;-84
2022/12/07 09:41:08;;;;;;;25.48;11.70;;;4.90;99.90;;;-144.05;76.02;125687.94;5004307;28;20023;-85
2022/12/07 09:43:39;;;;;;;28.75;10.68;;;4.90;99.90;;;-144.05;76.28;125687.94;5003868;28;20026;-87
2022/12/07 09:46:06;;;;;;;25.63;11.50;;;4.90;99.90;;;-144.05;76.66;125687.94;5015633;28;20035;-82
2022/12/07 09:48:39;;;;;;;24.48;11.80;;;4.90;99.90;;;-144.05;75.90;125687.94;5003256;28;20097;-84
2022/12/07 09:51:25;;;;;;;26.55;11.52;;;4.90;99.90;;;-144.05;75.85;125687.94;4998565;28;20034;-86
2022/12/07 09:53:56;;;;;;;;;;;5.00;99.90;;;-144.05;75.21;125687.94;5001034;28;20520;-85
2022/12/07 09:56:24;;;;;;;24.73;11.07;;;5.00;99.90;;;-144.05;75.38;125687.94;5000623;28;19925;-84
2022/12/07 09:59:01;;;;;;;23.75;11.93;;;4.90;99.90;;;-144.05;75.53;125687.94;5001477;28;20502;-85
2022/12/07 10:01:34;;;;;;;23.88;11.75;;;4.80;99.90;;;-144.05;75.25;125687.94;5018240;28;20031;-86
2022/12/07 10:04:24;;;;;;;22.65;11.35;;;4.80;99.90;;;-144.05;75.20;125687.94;5002781;28;20026;-84
2022/12/07 10:06:53;;;;;;;25.90;12.60;;;4.80;99.90;;;-144.05;75.97;125687.94;5001479;28;20026;-84
2022/12/07 10:09:22;;;;;;;22.23;13.48;;;4.70;99.90;;;-144.05;76.08;125687.94;5002277;28;20049;-85
2022/12/07 10:12:11;;;;;;;27.08;13.02;;;5.00;99.90;;;-144.05;75.39;125687.94;5005667;28;20026;-84
2022/12/07 10:14:53;;;;;;;21.33;12.60;;;5.30;99.90;;;-144.05;74.11;125687.94;5005068;28;20034;-83
2022/12/07 10:17:40;;;;;;;26.30;12.70;;;5.30;99.90;;;-144.05;73.96;125687.94;5004543;28;20026;-84
2022/12/07 10:20:18;;;;;;;29.52;13.57;;;5.20;99.90;;;-144.05;74.32;125687.94;5005069;28;20022;-83